sensor_id;sensor_type;location;lat;lon;timestamp;temperature;humidity
20526;DHT22;10421;49.142;9.232;2022-11-06T00:02:18;10.40;97.20
20526;DHT22;10421;49.142;9.232;2022-11-06T00:04:45;10.40;97.20
20526;DHT22;10421;49.142;9.232;2022-11-06T00:07:13;10.40;97.20
20526;DHT22;10421;49.142;9.232;2022-11-06T00:09:39;10.40;97.30
20526;DHT22;10421;49.142;9.232;2022-11-06T00:12:06;10.40;97.40
20526;DHT22;10421;49.142;9.232;2022-11-06T00:14:34;10.40;97.40
20526;DHT22;10421;49.142;9.232;2022-11-06T00:17:00;10.40;97.50
20526;DHT22;10421;49.142;9.232;2022-11-06T00:19:27;10.40;97.50
20526;DHT22;10421;49.142;9.232;2022-11-06T00:21:54;10.40;97.50
20526;DHT22;10421;49.142;9.232;2022-11-06T00:24:22;10.40;97.50
20526;DHT22;10421;49.142;9.232;2022-11-06T00:26:49;10.40;97.50
20526;DHT22;10421;49.142;9.232;2022-11-06T00:29:16;10.40;97.50
20526;DHT22;10421;49.142;9.232;2022-11-06T00:31:43;10.40;97.40
20526;DHT22;10421;49.142;9.232;2022-11-06T00:34:10;10.40;97.40
20526;DHT22;10421;49.142;9.232;2022-11-06T00:36:37;10.40;97.50
20526;DHT22;10421;49.142;9.232;2022-11-06T00:39:04;10.40;97.50
20526;DHT22;10421;49.142;9.232;2022-11-06T00:41:32;10.40;97.40
20526;DHT22;10421;49.142;9.232;2022-11-06T00:44:00;10.30;97.40
20526;DHT22;10421;49.142;9.232;2022-11-06T00:46:27;10.40;97.40
20526;DHT22;10421;49.142;9.232;2022-11-06T00:48:54;10.40;97.40
20526;DHT22;10421;49.142;9.232;2022-11-06T00:51:23;10.40;97.40
20526;DHT22;10421;49.142;9.232;2022-11-06T00:53:56;10.30;97.40
20526;DHT22;10421;49.142;9.232;2022-11-06T00:56:23;10.30;97.40
20526;DHT22;10421;49.142;9.232;2022-11-06T00:58:52;10.30;97.40
20526;DHT22;10421;49.142;9.232;2022-11-06T01:01:20;10.30;97.40
20526;DHT22;10421;49.142;9.232;2022-11-06T01:03:51;10.30;97.50
20526;DHT22;10421;49.142;9.232;2022-11-06T01:06:19;10.30;97.50
20526;DHT22;10421;49.142;9.232;2022-11-06T01:08:48;10.30;97.50
20526;DHT22;10421;49.142;9.232;2022-11-06T01:11:16;10.30;97.50
20526;DHT22;10421;49.142;9.232;2022-11-06T01:13:45;10.30;97.40
20526;DHT22;10421;49.142;9.232;2022-11-06T01:16:14;10.20;97.40
20526;DHT22;10421;49.142;9.232;2022-11-06T01:18:42;10.10;97.50
20526;DHT22;10421;49.142;9.232;2022-11-06T01:21:11;10.20;97.60
20526;DHT22;10421;49.142;9.232;2022-11-06T01:23:38;10.10;97.60
20526;DHT22;10421;49.142;9.232;2022-11-06T01:26:07;10.10;97.70
20526;DHT22;10421;49.142;9.232;2022-11-06T01:28:35;10.10;97.70
20526;DHT22;10421;49.142;9.232;2022-11-06T01:31:03;10.10;97.70
20526;DHT22;10421;49.142;9.232;2022-11-06T01:33:31;10.10;97.60
20526;DHT22;10421;49.142;9.232;2022-11-06T01:35:58;10.10;97.60
20526;DHT22;10421;49.142;9.232;2022-11-06T01:38:25;10.10;97.50
20526;DHT22;10421;49.142;9.232;2022-11-06T01:40:52;10.10;97.50
20526;DHT22;10421;49.142;9.232;2022-11-06T01:43:20;10.10;97.40
20526;DHT22;10421;49.142;9.232;2022-11-06T01:45:48;10.10;97.40
20526;DHT22;10421;49.142;9.232;2022-11-06T01:48:18;10.10;97.30
20526;DHT22;10421;49.142;9.232;2022-11-06T01:50:48;10.10;97.30
20526;DHT22;10421;49.142;9.232;2022-11-06T01:53:16;10.10;97.30
20526;DHT22;10421;49.142;9.232;2022-11-06T01:55:47;10.10;97.20
20526;DHT22;10421;49.142;9.232;2022-11-06T01:58:16;10.00;97.20
20526;DHT22;10421;49.142;9.232;2022-11-06T02:00:45;10.10;97.10
20526;DHT22;10421;49.142;9.232;2022-11-06T02:03:12;10.00;97.10
20526;DHT22;10421;49.142;9.232;2022-11-06T02:05:39;9.90;97.70
20526;DHT22;10421;49.142;9.232;2022-11-06T02:08:10;9.90;97.70
20526;DHT22;10421;49.142;9.232;2022-11-06T02:10:37;9.90;97.70
20526;DHT22;10421;49.142;9.232;2022-11-06T02:13:26;9.90;97.70
20526;DHT22;10421;49.142;9.232;2022-11-06T02:16:07;9.90;97.70
20526;DHT22;10421;49.142;9.232;2022-11-06T02:18:47;9.90;97.60
20526;DHT22;10421;49.142;9.232;2022-11-06T02:24:56;9.90;97.50
20526;DHT22;10421;49.142;9.232;2022-11-06T02:27:27;9.90;97.40
20526;DHT22;10421;49.142;9.232;2022-11-06T02:29:59;9.80;97.30
20526;DHT22;10421;49.142;9.232;2022-11-06T02:32:31;9.80;97.30
20526;DHT22;10421;49.142;9.232;2022-11-06T02:35:02;9.80;97.30
20526;DHT22;10421;49.142;9.232;2022-11-06T02:37:34;9.80;97.40
20526;DHT22;10421;49.142;9.232;2022-11-06T02:40:05;9.70;97.30
20526;DHT22;10421;49.142;9.232;2022-11-06T02:42:37;9.70;97.40
20526;DHT22;10421;49.142;9.232;2022-11-06T02:45:09;9.70;97.40
20526;DHT22;10421;49.142;9.232;2022-11-06T02:47:38;9.70;97.30
20526;DHT22;10421;49.142;9.232;2022-11-06T02:50:08;9.70;97.20
20526;DHT22;10421;49.142;9.232;2022-11-06T02:52:40;9.60;97.10
20526;DHT22;10421;49.142;9.232;2022-11-06T02:55:10;9.60;97.20
20526;DHT22;10421;49.142;9.232;2022-11-06T02:57:40;9.60;97.20
20526;DHT22;10421;49.142;9.232;2022-11-06T03:00:11;9.50;97.20
20526;DHT22;10421;49.142;9.232;2022-11-06T03:02:41;9.50;97.20
20526;DHT22;10421;49.142;9.232;2022-11-06T03:05:14;9.50;97.30
20526;DHT22;10421;49.142;9.232;2022-11-06T03:07:47;9.50;97.30
20526;DHT22;10421;49.142;9.232;2022-11-06T03:10:16;9.40;97.20
20526;DHT22;10421;49.142;9.232;2022-11-06T03:12:50;9.40;97.20
20526;DHT22;10421;49.142;9.232;2022-11-06T03:15:25;9.40;97.20
20526;DHT22;10421;49.142;9.232;2022-11-06T03:17:59;9.40;97.20
20526;DHT22;10421;49.142;9.232;2022-11-06T03:20:30;9.40;97.20
20526;DHT22;10421;49.142;9.232;2022-11-06T03:23:08;9.40;97.10
20526;DHT22;10421;49.142;9.232;2022-11-06T03:25:42;9.40;97.20
20526;DHT22;10421;49.142;9.232;2022-11-06T03:28:13;9.40;97.20
20526;DHT22;10421;49.142;9.232;2022-11-06T03:30:44;9.30;97.20
20526;DHT22;10421;49.142;9.232;2022-11-06T03:33:17;9.30;97.20
20526;DHT22;10421;49.142;9.232;2022-11-06T03:35:49;9.30;97.30
20526;DHT22;10421;49.142;9.232;2022-11-06T03:38:18;9.30;97.40
20526;DHT22;10421;49.142;9.232;2022-11-06T03:40:48;9.20;97.50
20526;DHT22;10421;49.142;9.232;2022-11-06T03:43:21;9.20;97.60
20526;DHT22;10421;49.142;9.232;2022-11-06T03:45:51;9.10;97.70
20526;DHT22;10421;49.142;9.232;2022-11-06T03:48:21;9.10;97.70
20526;DHT22;10421;49.142;9.232;2022-11-06T03:50:55;9.10;97.70
20526;DHT22;10421;49.142;9.232;2022-11-06T03:53:24;9.10;97.70
20526;DHT22;10421;49.142;9.232;2022-11-06T03:55:56;9.10;97.70
20526;DHT22;10421;49.142;9.232;2022-11-06T03:58:30;9.10;97.60
20526;DHT22;10421;49.142;9.232;2022-11-06T04:01:02;9.10;97.60
20526;DHT22;10421;49.142;9.232;2022-11-06T04:03:34;9.10;97.50
20526;DHT22;10421;49.142;9.232;2022-11-06T04:06:08;9.10;97.60
20526;DHT22;10421;49.142;9.232;2022-11-06T04:08:37;9.10;97.60
20526;DHT22;10421;49.142;9.232;2022-11-06T04:11:25;9.10;97.50
20526;DHT22;10421;49.142;9.232;2022-11-06T04:14:13;9.00;97.30
20526;DHT22;10421;49.142;9.232;2022-11-06T04:16:45;9.00;97.40
20526;DHT22;10421;49.142;9.232;2022-11-06T04:19:14;9.10;97.40
20526;DHT22;10421;49.142;9.232;2022-11-06T04:21:52;9.00;97.30
20526;DHT22;10421;49.142;9.232;2022-11-06T04:24:27;9.00;97.20
20526;DHT22;10421;49.142;9.232;2022-11-06T04:27:28;9.00;97.20
20526;DHT22;10421;49.142;9.232;2022-11-06T04:30:05;9.00;97.20
20526;DHT22;10421;49.142;9.232;2022-11-06T04:32:58;9.00;97.10
20526;DHT22;10421;49.142;9.232;2022-11-06T04:35:30;9.00;97.00
20526;DHT22;10421;49.142;9.232;2022-11-06T04:38:05;8.90;97.00
20526;DHT22;10421;49.142;9.232;2022-11-06T04:40:43;8.90;96.90
20526;DHT22;10421;49.142;9.232;2022-11-06T04:43:15;8.90;96.90
20526;DHT22;10421;49.142;9.232;2022-11-06T04:45:50;8.90;96.90
20526;DHT22;10421;49.142;9.232;2022-11-06T04:48:18;8.90;96.90
20526;DHT22;10421;49.142;9.232;2022-11-06T04:50:49;8.90;96.90
20526;DHT22;10421;49.142;9.232;2022-11-06T04:53:17;8.90;96.90
20526;DHT22;10421;49.142;9.232;2022-11-06T04:55:47;8.90;96.80
20526;DHT22;10421;49.142;9.232;2022-11-06T04:58:14;8.80;96.80
20526;DHT22;10421;49.142;9.232;2022-11-06T05:00:44;8.80;96.80
20526;DHT22;10421;49.142;9.232;2022-11-06T05:03:13;8.80;96.90
20526;DHT22;10421;49.142;9.232;2022-11-06T05:05:40;8.80;96.80
20526;DHT22;10421;49.142;9.232;2022-11-06T05:08:12;8.80;96.80
20526;DHT22;10421;49.142;9.232;2022-11-06T05:10:39;8.80;96.80
20526;DHT22;10421;49.142;9.232;2022-11-06T05:13:06;8.80;96.80
20526;DHT22;10421;49.142;9.232;2022-11-06T05:15:33;8.70;96.70
20526;DHT22;10421;49.142;9.232;2022-11-06T05:18:00;8.60;96.70
20526;DHT22;10421;49.142;9.232;2022-11-06T05:20:28;8.50;96.70
20526;DHT22;10421;49.142;9.232;2022-11-06T05:22:55;8.50;96.70
20526;DHT22;10421;49.142;9.232;2022-11-06T05:25:25;8.40;96.70
20526;DHT22;10421;49.142;9.232;2022-11-06T05:27:52;8.30;96.90
20526;DHT22;10421;49.142;9.232;2022-11-06T05:30:19;8.40;96.90
20526;DHT22;10421;49.142;9.232;2022-11-06T05:32:46;8.30;97.00
20526;DHT22;10421;49.142;9.232;2022-11-06T05:35:13;8.20;97.10
20526;DHT22;10421;49.142;9.232;2022-11-06T05:37:41;8.30;97.20
20526;DHT22;10421;49.142;9.232;2022-11-06T05:40:09;8.30;97.30
20526;DHT22;10421;49.142;9.232;2022-11-06T05:42:36;8.30;97.20
20526;DHT22;10421;49.142;9.232;2022-11-06T05:45:04;8.30;97.20
20526;DHT22;10421;49.142;9.232;2022-11-06T05:47:32;8.30;97.20
20526;DHT22;10421;49.142;9.232;2022-11-06T05:49:59;8.30;97.20
20526;DHT22;10421;49.142;9.232;2022-11-06T05:52:26;8.30;97.20
20526;DHT22;10421;49.142;9.232;2022-11-06T05:54:54;8.30;97.20
20526;DHT22;10421;49.142;9.232;2022-11-06T05:57:21;8.30;97.20
20526;DHT22;10421;49.142;9.232;2022-11-06T05:59:48;8.40;97.30
20526;DHT22;10421;49.142;9.232;2022-11-06T06:02:15;8.30;97.20
20526;DHT22;10421;49.142;9.232;2022-11-06T06:04:41;8.30;97.30
20526;DHT22;10421;49.142;9.232;2022-11-06T06:07:08;8.30;97.30
20526;DHT22;10421;49.142;9.232;2022-11-06T06:09:35;8.30;97.30
20526;DHT22;10421;49.142;9.232;2022-11-06T06:12:03;8.30;97.30
20526;DHT22;10421;49.142;9.232;2022-11-06T06:14:30;8.30;97.30
20526;DHT22;10421;49.142;9.232;2022-11-06T06:16:57;8.30;97.30
20526;DHT22;10421;49.142;9.232;2022-11-06T06:19:24;8.30;97.40
20526;DHT22;10421;49.142;9.232;2022-11-06T06:21:50;8.30;97.30
20526;DHT22;10421;49.142;9.232;2022-11-06T06:24:17;8.30;97.20
20526;DHT22;10421;49.142;9.232;2022-11-06T06:26:44;8.30;97.30
20526;DHT22;10421;49.142;9.232;2022-11-06T06:29:12;8.20;97.30
20526;DHT22;10421;49.142;9.232;2022-11-06T06:31:39;8.20;97.40
20526;DHT22;10421;49.142;9.232;2022-11-06T06:34:06;8.20;97.50
20526;DHT22;10421;49.142;9.232;2022-11-06T06:36:33;8.20;97.60
20526;DHT22;10421;49.142;9.232;2022-11-06T06:39:00;8.20;97.60
20526;DHT22;10421;49.142;9.232;2022-11-06T06:41:26;8.20;97.50
20526;DHT22;10421;49.142;9.232;2022-11-06T06:43:53;8.20;97.50
20526;DHT22;10421;49.142;9.232;2022-11-06T06:46:21;8.30;97.60
20526;DHT22;10421;49.142;9.232;2022-11-06T06:48:48;8.30;97.60
20526;DHT22;10421;49.142;9.232;2022-11-06T06:51:14;8.30;97.60
20526;DHT22;10421;49.142;9.232;2022-11-06T06:53:41;8.30;97.60
20526;DHT22;10421;49.142;9.232;2022-11-06T06:56:09;8.30;97.60
20526;DHT22;10421;49.142;9.232;2022-11-06T06:58:35;8.30;97.60
20526;DHT22;10421;49.142;9.232;2022-11-06T07:01:04;8.40;97.60
20526;DHT22;10421;49.142;9.232;2022-11-06T07:03:36;8.50;97.80
20526;DHT22;10421;49.142;9.232;2022-11-06T07:06:03;8.70;98.60
20526;DHT22;10421;49.142;9.232;2022-11-06T07:08:30;8.80;98.10
20526;DHT22;10421;49.142;9.232;2022-11-06T07:10:58;8.90;97.80
20526;DHT22;10421;49.142;9.232;2022-11-06T07:13:26;9.00;97.40
20526;DHT22;10421;49.142;9.232;2022-11-06T07:15:53;9.00;97.00
20526;DHT22;10421;49.142;9.232;2022-11-06T07:18:19;9.00;96.80
20526;DHT22;10421;49.142;9.232;2022-11-06T07:20:48;9.00;96.60
20526;DHT22;10421;49.142;9.232;2022-11-06T07:23:14;9.00;96.60
20526;DHT22;10421;49.142;9.232;2022-11-06T07:25:41;9.10;96.80
20526;DHT22;10421;49.142;9.232;2022-11-06T07:28:08;9.20;97.00
20526;DHT22;10421;49.142;9.232;2022-11-06T07:30:35;9.30;96.90
20526;DHT22;10421;49.142;9.232;2022-11-06T07:33:03;9.40;97.30
20526;DHT22;10421;49.142;9.232;2022-11-06T07:35:31;9.40;97.30
20526;DHT22;10421;49.142;9.232;2022-11-06T07:38:02;9.30;97.50
20526;DHT22;10421;49.142;9.232;2022-11-06T07:40:29;9.50;97.50
20526;DHT22;10421;49.142;9.232;2022-11-06T07:43:02;9.80;97.30
20526;DHT22;10421;49.142;9.232;2022-11-06T07:45:28;10.00;96.20
20526;DHT22;10421;49.142;9.232;2022-11-06T07:47:55;10.30;95.20
20526;DHT22;10421;49.142;9.232;2022-11-06T07:50:22;10.60;94.80
20526;DHT22;10421;49.142;9.232;2022-11-06T07:52:49;10.90;94.10
20526;DHT22;10421;49.142;9.232;2022-11-06T07:55:17;11.10;93.60
20526;DHT22;10421;49.142;9.232;2022-11-06T07:57:44;11.20;93.00
20526;DHT22;10421;49.142;9.232;2022-11-06T08:00:11;11.30;92.80
20526;DHT22;10421;49.142;9.232;2022-11-06T08:02:39;11.30;92.60
20526;DHT22;10421;49.142;9.232;2022-11-06T08:05:06;11.40;92.60
20526;DHT22;10421;49.142;9.232;2022-11-06T08:07:33;11.30;92.50
20526;DHT22;10421;49.142;9.232;2022-11-06T08:09:59;11.20;92.50
20526;DHT22;10421;49.142;9.232;2022-11-06T08:12:27;11.20;92.60
20526;DHT22;10421;49.142;9.232;2022-11-06T08:14:54;11.10;92.70
20526;DHT22;10421;49.142;9.232;2022-11-06T08:17:21;11.00;92.80
20526;DHT22;10421;49.142;9.232;2022-11-06T08:19:48;11.00;93.00
20526;DHT22;10421;49.142;9.232;2022-11-06T08:22:14;10.90;93.30
20526;DHT22;10421;49.142;9.232;2022-11-06T08:24:41;11.00;93.70
20526;DHT22;10421;49.142;9.232;2022-11-06T08:27:08;11.00;94.00
20526;DHT22;10421;49.142;9.232;2022-11-06T08:29:36;11.00;94.30
20526;DHT22;10421;49.142;9.232;2022-11-06T08:32:03;11.00;94.40
20526;DHT22;10421;49.142;9.232;2022-11-06T08:34:29;11.10;94.60
20526;DHT22;10421;49.142;9.232;2022-11-06T08:36:56;11.00;94.70
20526;DHT22;10421;49.142;9.232;2022-11-06T08:39:23;11.00;94.90
20526;DHT22;10421;49.142;9.232;2022-11-06T08:41:50;11.10;94.80
20526;DHT22;10421;49.142;9.232;2022-11-06T08:44:16;11.10;94.80
20526;DHT22;10421;49.142;9.232;2022-11-06T08:46:47;11.20;94.80
20526;DHT22;10421;49.142;9.232;2022-11-06T08:49:14;11.20;95.00
20526;DHT22;10421;49.142;9.232;2022-11-06T08:51:41;11.30;94.90
20526;DHT22;10421;49.142;9.232;2022-11-06T08:54:09;11.30;94.80
20526;DHT22;10421;49.142;9.232;2022-11-06T08:56:36;11.50;94.70
20526;DHT22;10421;49.142;9.232;2022-11-06T08:59:02;11.60;94.40
20526;DHT22;10421;49.142;9.232;2022-11-06T09:01:29;11.80;94.10
20526;DHT22;10421;49.142;9.232;2022-11-06T09:03:58;12.10;93.90
20526;DHT22;10421;49.142;9.232;2022-11-06T09:06:24;12.40;93.70
20526;DHT22;10421;49.142;9.232;2022-11-06T09:08:51;12.70;93.00
20526;DHT22;10421;49.142;9.232;2022-11-06T09:11:18;13.00;92.40
20526;DHT22;10421;49.142;9.232;2022-11-06T09:13:45;13.30;91.90
20526;DHT22;10421;49.142;9.232;2022-11-06T09:16:11;13.60;91.30
20526;DHT22;10421;49.142;9.232;2022-11-06T09:18:38;13.70;90.80
20526;DHT22;10421;49.142;9.232;2022-11-06T09:21:06;13.80;90.40
20526;DHT22;10421;49.142;9.232;2022-11-06T09:23:33;13.80;90.40
20526;DHT22;10421;49.142;9.232;2022-11-06T09:26:00;14.00;90.30
20526;DHT22;10421;49.142;9.232;2022-11-06T09:28:27;14.20;90.00
20526;DHT22;10421;49.142;9.232;2022-11-06T09:30:53;14.40;89.00
20526;DHT22;10421;49.142;9.232;2022-11-06T09:33:20;14.50;88.40
20526;DHT22;10421;49.142;9.232;2022-11-06T09:35:47;14.60;88.30
20526;DHT22;10421;49.142;9.232;2022-11-06T09:38:15;14.70;87.50
20526;DHT22;10421;49.142;9.232;2022-11-06T09:40:48;14.80;88.00
20526;DHT22;10421;49.142;9.232;2022-11-06T09:43:29;14.90;87.40
20526;DHT22;10421;49.142;9.232;2022-11-06T09:46:05;15.00;87.00
20526;DHT22;10421;49.142;9.232;2022-11-06T09:48:35;15.20;86.50
20526;DHT22;10421;49.142;9.232;2022-11-06T09:51:09;15.50;85.90
20526;DHT22;10421;49.142;9.232;2022-11-06T09:53:43;15.70;84.70
20526;DHT22;10421;49.142;9.232;2022-11-06T09:56:13;15.90;84.70
20526;DHT22;10421;49.142;9.232;2022-11-06T09:58:42;16.00;83.80
20526;DHT22;10421;49.142;9.232;2022-11-06T10:01:14;16.10;83.00
20526;DHT22;10421;49.142;9.232;2022-11-06T10:03:46;16.20;82.80
20526;DHT22;10421;49.142;9.232;2022-11-06T10:06:20;16.30;82.80
20526;DHT22;10421;49.142;9.232;2022-11-06T10:08:50;16.30;83.10
20526;DHT22;10421;49.142;9.232;2022-11-06T10:11:38;16.40;82.70
20526;DHT22;10421;49.142;9.232;2022-11-06T10:14:14;16.50;81.90
20526;DHT22;10421;49.142;9.232;2022-11-06T10:16:48;16.50;82.20
20526;DHT22;10421;49.142;9.232;2022-11-06T10:19:24;16.50;82.20
20526;DHT22;10421;49.142;9.232;2022-11-06T10:21:58;16.70;82.00
20526;DHT22;10421;49.142;9.232;2022-11-06T10:24:36;16.80;82.20
20526;DHT22;10421;49.142;9.232;2022-11-06T10:27:14;16.90;81.30
20526;DHT22;10421;49.142;9.232;2022-11-06T10:30:00;17.00;80.30
20526;DHT22;10421;49.142;9.232;2022-11-06T10:32:40;17.20;80.10
20526;DHT22;10421;49.142;9.232;2022-11-06T10:35:14;17.30;80.00
20526;DHT22;10421;49.142;9.232;2022-11-06T10:37:47;17.40;80.50
20526;DHT22;10421;49.142;9.232;2022-11-06T10:40:20;17.60;79.30
20526;DHT22;10421;49.142;9.232;2022-11-06T10:42:54;17.80;78.70
20526;DHT22;10421;49.142;9.232;2022-11-06T10:45:23;17.90;78.40
20526;DHT22;10421;49.142;9.232;2022-11-06T10:47:55;18.10;78.30
20526;DHT22;10421;49.142;9.232;2022-11-06T10:50:30;18.20;77.80
20526;DHT22;10421;49.142;9.232;2022-11-06T10:53:04;18.30;77.60
20526;DHT22;10421;49.142;9.232;2022-11-06T10:55:44;18.40;77.20
20526;DHT22;10421;49.142;9.232;2022-11-06T10:58:15;18.40;77.30
20526;DHT22;10421;49.142;9.232;2022-11-06T11:00:43;18.50;77.20
20526;DHT22;10421;49.142;9.232;2022-11-06T11:03:18;18.50;77.40
20526;DHT22;10421;49.142;9.232;2022-11-06T11:05:47;18.40;78.10
20526;DHT22;10421;49.142;9.232;2022-11-06T11:08:36;18.40;77.80
20526;DHT22;10421;49.142;9.232;2022-11-06T11:11:15;18.40;77.90
20526;DHT22;10421;49.142;9.232;2022-11-06T11:13:44;18.30;78.20
20526;DHT22;10421;49.142;9.232;2022-11-06T11:16:13;18.30;77.60
20526;DHT22;10421;49.142;9.232;2022-11-06T11:18:41;18.30;77.90
20526;DHT22;10421;49.142;9.232;2022-11-06T11:21:14;18.40;78.50
20526;DHT22;10421;49.142;9.232;2022-11-06T11:23:41;18.30;77.10
20526;DHT22;10421;49.142;9.232;2022-11-06T11:26:20;18.30;77.70
20526;DHT22;10421;49.142;9.232;2022-11-06T11:28:51;18.30;79.00
20526;DHT22;10421;49.142;9.232;2022-11-06T11:31:19;18.40;80.10
20526;DHT22;10421;49.142;9.232;2022-11-06T11:33:49;18.40;82.90
20526;DHT22;10421;49.142;9.232;2022-11-06T11:36:17;18.50;83.80
20526;DHT22;10421;49.142;9.232;2022-11-06T11:38:44;18.70;83.30
20526;DHT22;10421;49.142;9.232;2022-11-06T11:41:12;18.80;81.60
20526;DHT22;10421;49.142;9.232;2022-11-06T11:43:41;19.00;82.00
20526;DHT22;10421;49.142;9.232;2022-11-06T11:46:17;19.20;81.80
20526;DHT22;10421;49.142;9.232;2022-11-06T11:48:47;19.30;81.00
20526;DHT22;10421;49.142;9.232;2022-11-06T11:51:24;19.50;80.60
20526;DHT22;10421;49.142;9.232;2022-11-06T11:53:53;19.60;80.40
20526;DHT22;10421;49.142;9.232;2022-11-06T11:56:21;19.80;78.80
20526;DHT22;10421;49.142;9.232;2022-11-06T11:58:51;19.90;77.10
20526;DHT22;10421;49.142;9.232;2022-11-06T12:01:29;20.10;76.50
20526;DHT22;10421;49.142;9.232;2022-11-06T12:03:58;20.10;75.40
20526;DHT22;10421;49.142;9.232;2022-11-06T12:06:25;19.90;71.50
20526;DHT22;10421;49.142;9.232;2022-11-06T12:08:54;19.80;69.20
20526;DHT22;10421;49.142;9.232;2022-11-06T12:11:24;19.50;68.90
20526;DHT22;10421;49.142;9.232;2022-11-06T12:14:17;19.20;71.10
20526;DHT22;10421;49.142;9.232;2022-11-06T12:16:47;19.20;71.50
20526;DHT22;10421;49.142;9.232;2022-11-06T12:19:15;19.30;73.70
20526;DHT22;10421;49.142;9.232;2022-11-06T12:21:45;19.40;74.30
20526;DHT22;10421;49.142;9.232;2022-11-06T12:24:17;19.70;73.50
20526;DHT22;10421;49.142;9.232;2022-11-06T12:26:50;19.90;71.60
20526;DHT22;10421;49.142;9.232;2022-11-06T12:29:22;19.90;67.40
20526;DHT22;10421;49.142;9.232;2022-11-06T12:31:52;19.90;68.00
20526;DHT22;10421;49.142;9.232;2022-11-06T12:34:26;20.00;67.60
20526;DHT22;10421;49.142;9.232;2022-11-06T12:37:07;20.10;67.10
20526;DHT22;10421;49.142;9.232;2022-11-06T12:39:38;20.00;67.10
20526;DHT22;10421;49.142;9.232;2022-11-06T12:42:06;20.00;66.40
20526;DHT22;10421;49.142;9.232;2022-11-06T12:44:37;20.00;65.60
20526;DHT22;10421;49.142;9.232;2022-11-06T12:47:10;19.80;65.20
20526;DHT22;10421;49.142;9.232;2022-11-06T12:50:03;19.60;65.40
20526;DHT22;10421;49.142;9.232;2022-11-06T12:52:51;19.00;64.90
20526;DHT22;10421;49.142;9.232;2022-11-06T12:55:25;18.30;65.30
20526;DHT22;10421;49.142;9.232;2022-11-06T12:58:08;17.70;67.30
20526;DHT22;10421;49.142;9.232;2022-11-06T13:00:51;17.30;67.80
20526;DHT22;10421;49.142;9.232;2022-11-06T13:03:59;16.80;69.30
20526;DHT22;10421;49.142;9.232;2022-11-06T13:06:48;16.50;69.60
20526;DHT22;10421;49.142;9.232;2022-11-06T13:09:23;16.20;70.70
20526;DHT22;10421;49.142;9.232;2022-11-06T13:11:54;15.80;71.70
20526;DHT22;10421;49.142;9.232;2022-11-06T13:14:26;15.60;72.60
20526;DHT22;10421;49.142;9.232;2022-11-06T13:17:00;15.70;73.20
20526;DHT22;10421;49.142;9.232;2022-11-06T13:19:34;15.60;74.00
20526;DHT22;10421;49.142;9.232;2022-11-06T13:22:10;15.50;73.90
20526;DHT22;10421;49.142;9.232;2022-11-06T13:24:45;15.50;74.20
20526;DHT22;10421;49.142;9.232;2022-11-06T13:27:19;15.40;75.30
20526;DHT22;10421;49.142;9.232;2022-11-06T13:29:48;15.30;75.10
20526;DHT22;10421;49.142;9.232;2022-11-06T13:32:19;15.20;75.50
20526;DHT22;10421;49.142;9.232;2022-11-06T13:34:49;15.20;75.70
20526;DHT22;10421;49.142;9.232;2022-11-06T13:37:19;15.30;75.80
20526;DHT22;10421;49.142;9.232;2022-11-06T13:39:52;15.20;76.40
20526;DHT22;10421;49.142;9.232;2022-11-06T13:42:24;15.10;76.90
20526;DHT22;10421;49.142;9.232;2022-11-06T13:44:52;15.10;77.10
20526;DHT22;10421;49.142;9.232;2022-11-06T13:47:28;15.20;77.10
20526;DHT22;10421;49.142;9.232;2022-11-06T13:50:03;15.10;77.90
20526;DHT22;10421;49.142;9.232;2022-11-06T13:52:36;15.10;78.40
20526;DHT22;10421;49.142;9.232;2022-11-06T13:55:12;15.20;78.10
20526;DHT22;10421;49.142;9.232;2022-11-06T13:57:58;15.40;78.20
20526;DHT22;10421;49.142;9.232;2022-11-06T14:00:39;15.50;78.20
20526;DHT22;10421;49.142;9.232;2022-11-06T14:06:10;15.40;78.80
20526;DHT22;10421;49.142;9.232;2022-11-06T14:08:42;15.30;79.00
20526;DHT22;10421;49.142;9.232;2022-11-06T14:11:11;15.30;79.70
20526;DHT22;10421;49.142;9.232;2022-11-06T14:13:39;15.30;79.80
20526;DHT22;10421;49.142;9.232;2022-11-06T14:16:23;15.20;79.60
20526;DHT22;10421;49.142;9.232;2022-11-06T14:18:56;15.20;79.70
20526;DHT22;10421;49.142;9.232;2022-11-06T14:21:45;15.00;79.80
20526;DHT22;10421;49.142;9.232;2022-11-06T14:24:30;14.90;80.60
20526;DHT22;10421;49.142;9.232;2022-11-06T14:26:58;14.90;80.90
20526;DHT22;10421;49.142;9.232;2022-11-06T14:29:57;14.90;81.10
20526;DHT22;10421;49.142;9.232;2022-11-06T14:32:50;14.70;81.20
20526;DHT22;10421;49.142;9.232;2022-11-06T14:35:49;14.60;81.60
20526;DHT22;10421;49.142;9.232;2022-11-06T14:38:40;14.50;82.50
20526;DHT22;10421;49.142;9.232;2022-11-06T14:47:07;14.40;83.40
20526;DHT22;10421;49.142;9.232;2022-11-06T14:49:48;14.50;83.50
20526;DHT22;10421;49.142;9.232;2022-11-06T14:52:19;14.40;83.30
20526;DHT22;10421;49.142;9.232;2022-11-06T14:54:54;14.30;84.10
20526;DHT22;10421;49.142;9.232;2022-11-06T14:57:42;14.30;84.20
20526;DHT22;10421;49.142;9.232;2022-11-06T15:02:56;14.40;84.50
20526;DHT22;10421;49.142;9.232;2022-11-06T15:05:25;14.40;86.90
20526;DHT22;10421;49.142;9.232;2022-11-06T15:07:55;14.40;87.70
20526;DHT22;10421;49.142;9.232;2022-11-06T15:10:53;14.40;87.10
20526;DHT22;10421;49.142;9.232;2022-11-06T15:13:27;14.50;86.00
20526;DHT22;10421;49.142;9.232;2022-11-06T15:16:01;14.60;85.40
20526;DHT22;10421;49.142;9.232;2022-11-06T15:18:34;14.70;85.30
20526;DHT22;10421;49.142;9.232;2022-11-06T15:21:02;14.60;85.10
20526;DHT22;10421;49.142;9.232;2022-11-06T15:23:36;14.60;85.10
20526;DHT22;10421;49.142;9.232;2022-11-06T15:26:13;14.70;85.20
20526;DHT22;10421;49.142;9.232;2022-11-06T15:28:44;14.80;85.00
20526;DHT22;10421;49.142;9.232;2022-11-06T15:31:14;14.90;85.10
20526;DHT22;10421;49.142;9.232;2022-11-06T15:33:49;14.90;84.90
20526;DHT22;10421;49.142;9.232;2022-11-06T15:36:18;14.90;84.90
20526;DHT22;10421;49.142;9.232;2022-11-06T15:38:46;14.90;85.40
20526;DHT22;10421;49.142;9.232;2022-11-06T15:41:16;14.90;84.50
20526;DHT22;10421;49.142;9.232;2022-11-06T15:43:45;14.90;84.70
20526;DHT22;10421;49.142;9.232;2022-11-06T15:46:20;15.00;85.40
20526;DHT22;10421;49.142;9.232;2022-11-06T15:48:48;15.00;85.20
20526;DHT22;10421;49.142;9.232;2022-11-06T15:51:30;14.90;85.20
20526;DHT22;10421;49.142;9.232;2022-11-06T15:53:58;14.80;84.70
20526;DHT22;10421;49.142;9.232;2022-11-06T15:56:30;14.80;84.70
20526;DHT22;10421;49.142;9.232;2022-11-06T15:59:09;14.80;84.70
20526;DHT22;10421;49.142;9.232;2022-11-06T16:01:37;14.80;84.70
20526;DHT22;10421;49.142;9.232;2022-11-06T16:04:08;14.80;84.70
20526;DHT22;10421;49.142;9.232;2022-11-06T16:06:36;14.80;85.20
20526;DHT22;10421;49.142;9.232;2022-11-06T16:09:06;14.90;85.20
20526;DHT22;10421;49.142;9.232;2022-11-06T16:11:36;14.90;85.60
20526;DHT22;10421;49.142;9.232;2022-11-06T16:14:03;14.90;86.00
20526;DHT22;10421;49.142;9.232;2022-11-06T16:16:35;14.80;86.10